createdAt,value
2019-02-17T00:01:20.602Z,14.13
2019-02-17T00:03:51.118Z,13.20
2019-02-17T00:06:21.488Z,13.22
2019-02-17T00:08:51.927Z,13.75
2019-02-17T00:11:22.369Z,14.10
2019-02-17T00:13:52.733Z,15.55
2019-02-17T00:16:23.033Z,18.07
2019-02-17T00:18:53.400Z,13.45
2019-02-17T00:21:23.809Z,13.25
2019-02-17T00:23:54.317Z,12.70
2019-02-17T00:26:25.039Z,11.48
2019-02-17T00:28:59.422Z,12.43
2019-02-17T00:31:27.361Z,12.60
2019-02-17T00:33:57.731Z,12.40
2019-02-17T00:36:28.087Z,12.58
2019-02-17T00:38:58.479Z,12.98
2019-02-17T00:41:28.835Z,14.65
2019-02-17T00:43:59.251Z,12.58
2019-02-17T00:46:29.607Z,13.60
2019-02-17T00:49:00.051Z,12.35
2019-02-17T00:51:30.444Z,12.53
2019-02-17T00:54:00.976Z,12.03
2019-02-17T00:56:31.317Z,12.35
2019-02-17T00:59:09.766Z,12.45
2019-02-17T01:01:33.729Z,13.72
2019-02-17T01:04:05.192Z,13.53
2019-02-17T01:06:35.680Z,13.40
2019-02-17T01:09:06.788Z,12.70
2019-02-17T01:11:37.095Z,14.75
2019-02-17T01:14:07.447Z,13.43
2019-02-17T01:16:37.763Z,13.50
2019-02-17T01:19:08.247Z,13.20
2019-02-17T01:21:38.560Z,12.65
2019-02-17T01:24:09.148Z,12.07
2019-02-17T01:26:39.516Z,13.22
2019-02-17T01:29:19.781Z,13.10
2019-02-17T01:31:41.916Z,12.58
2019-02-17T01:34:12.617Z,12.78
2019-02-17T01:36:42.925Z,12.20
2019-02-17T01:39:13.652Z,12.20
2019-02-17T01:41:44.052Z,11.73
2019-02-17T01:44:14.497Z,13.35
2019-02-17T01:46:44.875Z,13.00
2019-02-17T01:49:15.276Z,13.28
2019-02-17T01:51:45.661Z,12.10
2019-02-17T01:54:16.026Z,12.85
2019-02-17T01:56:46.306Z,12.37
2019-02-17T01:59:16.661Z,13.10
2019-02-17T02:01:46.987Z,11.65
2019-02-17T02:04:17.367Z,12.53
2019-02-17T02:06:47.725Z,12.28
2019-02-17T02:09:18.055Z,11.68
2019-02-17T02:11:48.388Z,11.88
2019-02-17T02:14:19.826Z,11.80
2019-02-17T02:16:50.170Z,12.63
2019-02-17T02:19:20.536Z,12.68
2019-02-17T02:21:50.880Z,13.48
2019-02-17T02:24:21.238Z,13.00
2019-02-17T02:26:51.598Z,12.58
2019-02-17T02:29:21.989Z,12.13
2019-02-17T02:31:52.279Z,13.55
2019-02-17T02:34:22.649Z,11.75
2019-02-17T02:36:52.977Z,12.98
2019-02-17T02:39:23.465Z,12.75
2019-02-17T02:41:53.752Z,13.98
2019-02-17T02:44:24.090Z,12.93
2019-02-17T02:46:54.387Z,12.58
2019-02-17T02:49:24.728Z,13.28
2019-02-17T02:51:56.643Z,13.18
2019-02-17T02:54:46.039Z,13.65
2019-02-17T02:57:16.374Z,14.23
2019-02-17T02:59:52.385Z,12.60
2019-02-17T03:02:18.698Z,14.03
2019-02-17T03:04:49.021Z,14.13
2019-02-17T03:07:21.206Z,14.45
2019-02-17T03:09:51.515Z,14.63
2019-02-17T03:12:21.883Z,13.95
2019-02-17T03:14:52.256Z,15.28
2019-02-17T03:17:22.566Z,15.98
2019-02-17T03:19:52.956Z,15.95
2019-02-17T03:22:23.299Z,16.57
2019-02-17T03:24:53.666Z,15.93
2019-02-17T03:27:24.227Z,16.30
2019-02-17T03:30:04.351Z,16.32
2019-02-17T03:32:26.557Z,16.95
2019-02-17T03:34:56.886Z,15.68
2019-02-17T03:37:27.208Z,15.70
2019-02-17T03:39:57.620Z,15.20
2019-02-17T03:42:27.927Z,14.07
2019-02-17T03:44:58.318Z,15.20
2019-02-17T03:47:28.605Z,14.25
2019-02-17T03:49:58.989Z,14.87
2019-02-17T03:52:29.311Z,13.95
2019-02-17T03:54:59.669Z,14.40
2019-02-17T03:57:29.974Z,13.45
2019-02-17T04:00:00.411Z,13.90
2019-02-17T04:02:30.711Z,14.85
2019-02-17T04:05:01.120Z,14.38
2019-02-17T04:07:31.497Z,14.03
2019-02-17T04:10:01.872Z,13.28
2019-02-17T04:12:32.193Z,14.13
2019-02-17T04:15:02.571Z,13.88
2019-02-17T04:17:32.949Z,15.40
2019-02-17T04:20:03.326Z,14.60
2019-02-17T04:22:33.633Z,13.83
2019-02-17T04:25:03.987Z,13.58
2019-02-17T04:27:34.310Z,13.25
2019-02-17T04:30:04.911Z,12.53
2019-02-17T04:32:35.322Z,12.90
2019-02-17T04:35:05.866Z,13.10
2019-02-17T04:37:36.173Z,12.70
2019-02-17T04:40:06.601Z,13.18
2019-02-17T04:42:36.947Z,12.98
2019-02-17T04:45:07.305Z,13.35
2019-02-17T04:47:37.642Z,12.73
2019-02-17T04:50:08.268Z,13.13
2019-02-17T04:52:38.614Z,12.60
2019-02-17T04:55:09.120Z,13.30
2019-02-17T04:57:39.442Z,13.55
2019-02-17T05:00:10.016Z,12.73
2019-02-17T05:02:40.365Z,12.43
2019-02-17T05:05:10.818Z,12.55
2019-02-17T05:07:41.125Z,13.40
2019-02-17T05:10:11.454Z,13.83
2019-02-17T05:12:41.758Z,13.40
2019-02-17T05:15:12.120Z,13.43
2019-02-17T05:17:43.416Z,13.83
2019-02-17T05:20:13.821Z,13.95
2019-02-17T05:22:44.134Z,14.33
2019-02-17T05:25:14.485Z,14.40
2019-02-17T05:27:44.803Z,16.10
2019-02-17T05:30:15.176Z,15.03
2019-02-17T05:32:45.501Z,15.03
2019-02-17T05:35:15.857Z,16.25
2019-02-17T05:37:46.191Z,15.83
2019-02-17T05:40:16.533Z,15.90
2019-02-17T05:42:46.868Z,17.45
2019-02-17T05:45:17.212Z,14.90
2019-02-17T05:47:47.487Z,16.75
2019-02-17T05:50:17.855Z,17.30
2019-02-17T05:52:48.232Z,17.75
2019-02-17T05:55:18.625Z,19.48
2019-02-17T05:57:48.927Z,18.12
2019-02-17T06:00:21.707Z,20.17
2019-02-17T06:02:51.940Z,18.35
2019-02-17T06:05:22.283Z,19.20
2019-02-17T06:07:52.613Z,19.23
2019-02-17T06:10:22.958Z,19.98
2019-02-17T06:12:53.303Z,19.80
2019-02-17T06:15:23.596Z,19.25
2019-02-17T06:17:53.932Z,20.12
2019-02-17T06:20:24.269Z,19.00
2019-02-17T06:22:54.595Z,19.07
2019-02-17T06:25:24.956Z,20.20
2019-02-17T06:27:55.240Z,19.30
2019-02-17T06:30:25.597Z,18.27
2019-02-17T06:32:55.895Z,18.75
2019-02-17T06:35:26.243Z,19.25
2019-02-17T06:37:56.547Z,17.10
2019-02-17T06:40:26.893Z,16.55
2019-02-17T06:42:57.194Z,16.17
2019-02-17T06:45:27.564Z,16.45
2019-02-17T06:47:57.894Z,15.68
2019-02-17T06:50:28.230Z,15.00
2019-02-17T06:52:58.579Z,15.98
2019-02-17T06:55:42.792Z,16.30
2019-02-17T06:58:13.100Z,15.30
2019-02-17T07:00:45.986Z,15.38
2019-02-17T07:03:16.280Z,15.93
2019-02-17T07:06:00.151Z,14.73
2019-02-17T07:08:30.437Z,16.23
2019-02-17T07:11:00.809Z,16.00
2019-02-17T07:13:31.121Z,15.32
2019-02-17T07:16:01.509Z,15.20
2019-02-17T07:18:31.833Z,16.17
2019-02-17T07:21:02.944Z,16.15
2019-02-17T07:23:33.280Z,16.97
2019-02-17T07:26:03.656Z,15.53
2019-02-17T07:28:34.002Z,16.52
2019-02-17T07:31:04.358Z,15.13
2019-02-17T07:33:34.645Z,15.85
2019-02-17T07:36:05.032Z,17.10
2019-02-17T07:38:35.339Z,17.23
2019-02-17T07:41:05.702Z,16.85
2019-02-17T07:43:36.383Z,16.97
2019-02-17T07:46:06.714Z,18.05
2019-02-17T07:48:37.048Z,18.40
2019-02-17T07:51:07.399Z,18.45
2019-02-17T07:53:38.868Z,17.50
2019-02-17T07:56:09.312Z,17.12
2019-02-17T07:58:39.594Z,17.27
2019-02-17T08:01:09.959Z,17.62
2019-02-17T08:03:40.314Z,17.17
2019-02-17T08:06:10.714Z,18.57
2019-02-17T08:08:41.034Z,19.70
2019-02-17T08:11:11.406Z,19.67
2019-02-17T08:13:41.594Z,19.45
2019-02-17T08:16:12.211Z,21.40
2019-02-17T08:18:42.564Z,21.37
2019-02-17T08:21:12.929Z,21.42
2019-02-17T08:23:43.316Z,20.00
2019-02-17T08:26:13.621Z,21.30
2019-02-17T08:28:44.103Z,21.73
2019-02-17T08:31:14.471Z,21.93
2019-02-17T08:33:44.802Z,23.18
2019-02-17T08:36:15.224Z,22.42
2019-02-17T08:38:45.523Z,23.52
2019-02-17T08:41:16.887Z,23.00
2019-02-17T08:43:47.302Z,23.57
2019-02-17T08:46:17.758Z,23.98
2019-02-17T08:48:48.107Z,24.77
2019-02-17T08:51:18.468Z,24.05
2019-02-17T08:53:48.839Z,22.82
2019-02-17T08:56:19.176Z,24.75
2019-02-17T08:58:49.566Z,24.82
2019-02-17T09:01:19.914Z,25.90
2019-02-17T09:03:50.261Z,25.97
2019-02-17T09:06:20.736Z,24.75
2019-02-17T09:08:51.054Z,25.30
2019-02-17T09:11:21.462Z,23.10
2019-02-17T09:13:51.850Z,25.57
2019-02-17T09:16:22.231Z,24.20
2019-02-17T09:18:52.605Z,22.90
2019-02-17T09:21:23.130Z,24.15
2019-02-17T09:23:53.420Z,23.50
2019-02-17T09:26:23.764Z,23.83
2019-02-17T09:28:54.204Z,23.85
2019-02-17T09:31:24.465Z,24.90
2019-02-17T09:33:54.786Z,24.30
2019-02-17T09:36:25.129Z,24.07
2019-02-17T09:38:55.441Z,23.30
2019-02-17T09:41:25.812Z,25.37
2019-02-17T09:43:56.266Z,24.15
2019-02-17T09:46:26.672Z,25.85
2019-02-17T09:48:56.943Z,24.45
2019-02-17T09:51:27.327Z,23.22
2019-02-17T09:53:57.696Z,24.10
2019-02-17T09:56:28.040Z,23.92
2019-02-17T09:58:58.451Z,23.00
2019-02-17T10:01:28.780Z,24.40
2019-02-17T10:03:59.178Z,23.50
2019-02-17T10:06:29.598Z,22.48
2019-02-17T10:09:00.173Z,21.33
2019-02-17T10:11:30.562Z,23.50
2019-02-17T10:14:00.919Z,22.22
2019-02-17T10:16:31.320Z,23.38
2019-02-17T10:19:01.611Z,21.35
2019-02-17T10:21:32.038Z,21.50
2019-02-17T10:24:02.382Z,21.12
2019-02-17T10:26:32.726Z,20.30
2019-02-17T10:29:03.144Z,21.52
2019-02-17T10:31:33.488Z,22.40
2019-02-17T10:34:03.815Z,22.10
2019-02-17T10:36:36.956Z,21.65
2019-02-17T10:39:08.234Z,52.35
2019-02-17T10:41:38.654Z,54.30
2019-02-17T10:44:08.983Z,31.73
2019-02-17T10:46:39.319Z,22.55
2019-02-17T10:49:09.668Z,21.35
2019-02-17T10:51:40.025Z,23.22
2019-02-17T10:54:10.498Z,21.45
2019-02-17T10:56:40.868Z,22.67
2019-02-17T10:59:11.216Z,22.07
2019-02-17T11:01:41.608Z,23.50
2019-02-17T11:04:12.327Z,20.00
2019-02-17T11:06:42.686Z,20.82
2019-02-17T11:09:20.076Z,21.62
2019-02-17T11:11:50.970Z,19.57
2019-02-17T11:14:21.284Z,20.90
2019-02-17T11:16:52.102Z,21.40
2019-02-17T11:19:22.416Z,20.85
2019-02-17T11:21:52.786Z,19.42
2019-02-17T11:24:23.142Z,18.87
2019-02-17T11:26:53.528Z,17.05
2019-02-17T11:29:23.877Z,17.57
2019-02-17T11:31:54.240Z,16.57
2019-02-17T11:34:24.557Z,14.78
2019-02-17T11:36:54.906Z,16.07
2019-02-17T11:39:25.241Z,16.57
2019-02-17T11:41:55.710Z,15.93
2019-02-17T11:44:26.070Z,14.50
2019-02-17T11:46:56.370Z,16.20
2019-02-17T11:49:26.728Z,15.50
2019-02-17T11:51:57.062Z,15.53
2019-02-17T11:54:27.480Z,13.65
2019-02-17T11:56:57.765Z,14.98
2019-02-17T11:59:28.136Z,14.23
2019-02-17T12:01:58.404Z,15.10
2019-02-17T12:04:28.790Z,14.70
2019-02-17T12:07:00.396Z,15.00
2019-02-17T12:09:30.995Z,13.40
2019-02-17T12:12:01.318Z,12.30
2019-02-17T12:14:35.288Z,13.08
2019-02-17T12:17:05.628Z,12.37
2019-02-17T12:19:36.022Z,12.13
2019-02-17T12:22:29.264Z,12.07
2019-02-17T12:25:18.626Z,12.40
2019-02-17T12:28:00.522Z,12.18
2019-02-17T12:30:31.022Z,12.58
2019-02-17T12:33:03.219Z,11.43
2019-02-17T12:35:33.398Z,11.28
2019-02-17T12:38:03.768Z,10.90
2019-02-17T12:40:34.160Z,10.58
2019-02-17T12:43:04.577Z,10.60
2019-02-17T12:45:34.940Z,9.00
2019-02-17T12:48:05.335Z,9.20
2019-02-17T12:50:35.679Z,9.15
2019-02-17T12:53:06.027Z,9.75
2019-02-17T12:55:36.471Z,10.30
2019-02-17T12:58:06.834Z,9.75
2019-02-17T13:00:37.213Z,8.50
2019-02-17T13:03:07.537Z,9.73
2019-02-17T13:05:37.931Z,8.88
2019-02-17T13:08:08.283Z,9.45
2019-02-17T13:10:38.654Z,9.45
2019-02-17T13:13:10.218Z,9.18
2019-02-17T13:15:40.528Z,8.73
2019-02-17T13:18:11.061Z,10.13
2019-02-17T13:20:41.429Z,9.38
2019-02-17T13:23:11.786Z,10.18
2019-02-17T13:25:42.110Z,9.80
2019-02-17T13:28:12.535Z,10.58
2019-02-17T13:30:43.984Z,11.97
2019-02-17T13:33:14.343Z,11.90
2019-02-17T13:35:44.777Z,11.68
2019-02-17T13:38:16.295Z,12.73
2019-02-17T13:40:46.583Z,11.95
2019-02-17T13:43:16.960Z,12.23
2019-02-17T13:45:47.314Z,11.80
2019-02-17T13:48:17.678Z,11.15
2019-02-17T13:50:48.028Z,12.10
2019-02-17T13:53:18.403Z,11.65
2019-02-17T13:55:48.689Z,10.98
2019-02-17T13:58:19.023Z,11.30
2019-02-17T14:00:49.332Z,11.53
2019-02-17T14:03:19.705Z,10.75
2019-02-17T14:05:50.029Z,10.43
2019-02-17T14:08:20.410Z,9.95
2019-02-17T14:10:50.826Z,9.48
2019-02-17T14:13:21.221Z,9.65
2019-02-17T14:15:51.523Z,9.60
2019-02-17T14:18:21.877Z,9.73
2019-02-17T14:20:52.215Z,9.60
2019-02-17T14:23:22.565Z,10.00
2019-02-17T14:25:52.915Z,9.80
2019-02-17T14:28:23.308Z,9.63
2019-02-17T14:30:53.673Z,9.63
2019-02-17T14:33:24.092Z,10.95
2019-02-17T14:35:54.421Z,8.90
2019-02-17T14:38:24.742Z,9.98
2019-02-17T14:40:55.090Z,15.48
2019-02-17T14:43:25.450Z,11.20
2019-02-17T14:46:14.869Z,10.03
2019-02-17T14:48:45.206Z,9.68
2019-02-17T14:51:15.556Z,9.70
2019-02-17T14:53:45.943Z,9.63
2019-02-17T14:56:16.318Z,9.98
2019-02-17T14:58:46.684Z,8.75
2019-02-17T15:01:16.977Z,9.73
2019-02-17T15:03:47.364Z,9.98
2019-02-17T15:06:17.678Z,10.53
2019-02-17T15:08:48.075Z,10.03
2019-02-17T15:11:18.393Z,10.38
2019-02-17T15:13:48.802Z,10.40
2019-02-17T15:16:19.101Z,10.78
2019-02-17T15:18:49.486Z,10.13
2019-02-17T15:21:19.805Z,11.57
2019-02-17T15:23:50.180Z,11.48
2019-02-17T15:26:20.503Z,10.10
2019-02-17T15:28:51.593Z,12.15
2019-02-17T15:31:22.112Z,11.12
2019-02-17T15:33:52.545Z,11.40
2019-02-17T15:36:22.937Z,11.25
2019-02-17T15:38:53.289Z,11.05
2019-02-17T15:41:23.657Z,11.57
2019-02-17T15:43:54.056Z,10.93
2019-02-17T15:46:24.395Z,10.72
2019-02-17T15:48:54.783Z,10.25
2019-02-17T15:51:25.147Z,10.55
2019-02-17T15:53:55.579Z,11.75
2019-02-17T15:56:25.977Z,10.98
2019-02-17T15:58:56.395Z,11.53
2019-02-17T16:01:26.891Z,11.97
2019-02-17T16:03:57.410Z,10.60
2019-02-17T16:06:27.765Z,12.05
2019-02-17T16:08:58.231Z,11.22
2019-02-17T16:11:28.686Z,11.12
2019-02-17T16:13:59.160Z,11.35
2019-02-17T16:16:29.513Z,10.70
2019-02-17T16:18:59.898Z,11.20
2019-02-17T16:21:30.236Z,11.15
2019-02-17T16:24:00.765Z,10.82
2019-02-17T16:26:31.140Z,11.57
2019-02-17T16:29:01.585Z,12.23
2019-02-17T16:31:32.051Z,11.60
2019-02-17T16:34:02.499Z,11.38
2019-02-17T16:36:32.847Z,12.63
2019-02-17T16:39:05.618Z,10.95
2019-02-17T16:41:35.980Z,11.73
2019-02-17T16:44:06.464Z,11.10
2019-02-17T16:46:36.864Z,10.88
2019-02-17T16:49:07.341Z,10.90
2019-02-17T16:51:37.686Z,10.90
2019-02-17T16:54:08.117Z,11.22
2019-02-17T16:56:38.455Z,11.20
2019-02-17T16:59:08.902Z,11.38
2019-02-17T17:01:39.370Z,10.75
2019-02-17T17:04:09.847Z,11.40
2019-02-17T17:06:40.294Z,11.68
2019-02-17T17:09:10.830Z,11.18
2019-02-17T17:11:41.308Z,12.63
2019-02-17T17:14:11.769Z,11.15
2019-02-17T17:16:42.130Z,12.37
2019-02-17T17:19:12.602Z,11.80
2019-02-17T17:21:43.023Z,12.23
2019-02-17T17:24:13.545Z,13.43
2019-02-17T17:26:43.944Z,12.60
2019-02-17T17:29:14.373Z,11.97
2019-02-17T17:31:44.788Z,12.82
2019-02-17T17:34:15.262Z,12.45
2019-02-17T17:36:45.632Z,12.33
2019-02-17T17:39:16.139Z,12.15
2019-02-17T17:41:46.618Z,12.93
2019-02-17T17:44:17.055Z,12.50
2019-02-17T17:46:47.469Z,14.13
2019-02-17T17:49:19.483Z,13.20
2019-02-17T17:51:50.025Z,12.58
2019-02-17T17:54:20.415Z,13.72
2019-02-17T17:56:50.761Z,14.33
2019-02-17T17:59:21.144Z,15.32
2019-02-17T18:01:51.498Z,12.68
2019-02-17T18:04:21.901Z,14.25
2019-02-17T18:06:52.322Z,14.15
2019-02-17T18:09:22.779Z,15.68
2019-02-17T18:11:53.220Z,15.93
2019-02-17T18:14:23.570Z,15.63
2019-02-17T18:16:53.900Z,14.85
2019-02-17T18:19:24.305Z,17.07
2019-02-17T18:21:54.692Z,14.40
2019-02-17T18:24:26.724Z,15.43
2019-02-17T18:26:57.171Z,16.60
2019-02-17T18:29:27.573Z,16.30
2019-02-17T18:31:57.966Z,16.23
2019-02-17T18:34:28.358Z,16.73
2019-02-17T18:36:58.716Z,17.27
2019-02-17T18:39:29.085Z,17.65
2019-02-17T18:41:59.447Z,17.87
2019-02-17T18:44:29.856Z,18.20
2019-02-17T18:47:00.230Z,18.40
2019-02-17T18:49:31.731Z,19.02
2019-02-17T18:52:02.109Z,19.00
2019-02-17T18:54:34.575Z,19.02
2019-02-17T18:57:08.317Z,19.62
2019-02-17T18:59:36.953Z,20.08
2019-02-17T19:02:07.294Z,18.85
2019-02-17T19:04:37.773Z,17.52
2019-02-17T19:07:08.149Z,19.02
2019-02-17T19:09:38.563Z,17.60
2019-02-17T19:12:08.936Z,17.40
2019-02-17T19:14:39.361Z,16.52
2019-02-17T19:17:09.724Z,15.60
2019-02-17T19:19:40.162Z,16.20
2019-02-17T19:22:10.483Z,14.87
2019-02-17T19:24:40.917Z,14.78
2019-02-17T19:27:11.307Z,15.05
2019-02-17T19:29:41.795Z,16.05
2019-02-17T19:32:12.135Z,16.35
2019-02-17T19:34:42.518Z,16.27
2019-02-17T19:37:12.861Z,16.57
2019-02-17T19:39:43.211Z,16.17
2019-02-17T19:42:13.551Z,18.52
2019-02-17T19:44:43.972Z,19.32
2019-02-17T19:47:14.340Z,17.45
2019-02-17T19:49:44.739Z,19.67
2019-02-17T19:52:15.073Z,18.85
2019-02-17T19:54:46.370Z,18.55
2019-02-17T19:57:16.757Z,16.50
2019-02-17T19:59:47.174Z,17.85
2019-02-17T20:02:19.108Z,16.62
2019-02-17T20:05:05.762Z,18.17
2019-02-17T20:07:36.177Z,17.65
2019-02-17T20:10:07.312Z,19.37
2019-02-17T20:12:37.668Z,18.75
2019-02-17T20:15:08.191Z,20.27
2019-02-17T20:17:38.599Z,19.15
2019-02-17T20:20:09.162Z,19.15
2019-02-17T20:22:39.549Z,17.77
2019-02-17T20:25:09.961Z,17.48
2019-02-17T20:27:40.448Z,18.25
2019-02-17T20:30:11.320Z,17.65
2019-02-17T20:32:42.776Z,17.92
2019-02-17T20:35:13.196Z,19.73
2019-02-17T20:37:43.568Z,19.48
2019-02-17T20:40:13.965Z,18.57
2019-02-17T20:42:44.332Z,17.82
2019-02-17T20:45:14.751Z,18.75
2019-02-17T20:47:45.201Z,17.90
2019-02-17T20:50:16.825Z,17.57
2019-02-17T20:52:47.265Z,19.65
2019-02-17T20:55:17.818Z,18.73
2019-02-17T20:57:48.225Z,19.85
2019-02-17T21:00:22.591Z,20.23
2019-02-17T21:02:52.421Z,20.25
2019-02-17T21:05:22.957Z,19.50
2019-02-17T21:07:53.427Z,20.43
2019-02-17T21:10:23.788Z,20.88
2019-02-17T21:12:54.332Z,20.55
2019-02-17T21:15:25.003Z,20.55
2019-02-17T21:17:55.400Z,20.60
2019-02-17T21:20:25.847Z,20.37
2019-02-17T21:22:56.295Z,22.85
2019-02-17T21:25:26.770Z,21.85
2019-02-17T21:27:57.198Z,20.77
2019-02-17T21:30:27.686Z,20.32
2019-02-17T21:32:58.117Z,19.62
2019-02-17T21:35:28.526Z,19.85
2019-02-17T21:37:58.921Z,19.23
2019-02-17T21:40:29.359Z,20.25
2019-02-17T21:42:59.713Z,21.42
2019-02-17T21:45:30.088Z,20.65
2019-02-17T21:48:00.413Z,19.90
2019-02-17T21:50:30.833Z,21.30
2019-02-17T21:53:01.378Z,20.48
2019-02-17T21:55:31.853Z,19.12
2019-02-17T21:58:02.315Z,20.68
2019-02-17T22:00:32.999Z,20.92
2019-02-17T22:03:03.389Z,21.33
2019-02-17T22:05:33.925Z,20.70
2019-02-17T22:08:04.525Z,20.12
2019-02-17T22:10:35.235Z,21.25
2019-02-17T22:13:05.929Z,20.23
2019-02-17T22:15:36.671Z,20.65
2019-02-17T22:18:07.045Z,20.27
2019-02-17T22:20:37.867Z,21.27
2019-02-17T22:23:08.491Z,21.70
2019-02-17T22:25:38.942Z,20.30
2019-02-17T22:28:11.695Z,20.70
2019-02-17T22:30:42.413Z,20.68
2019-02-17T22:33:12.933Z,20.60
2019-02-17T22:35:43.703Z,19.80
2019-02-17T22:38:14.125Z,18.40
2019-02-17T22:40:45.193Z,20.10
2019-02-17T22:43:15.711Z,18.42
2019-02-17T22:45:49.288Z,19.60
2019-02-17T22:48:23.155Z,19.37
2019-02-17T22:50:53.639Z,18.85
2019-02-17T22:53:24.393Z,18.95
2019-02-17T22:55:55.607Z,18.95
2019-02-17T22:58:26.066Z,18.92
2019-02-17T23:01:07.178Z,19.35
2019-02-17T23:03:39.319Z,18.23
2019-02-17T23:06:09.996Z,18.73
2019-02-17T23:08:40.509Z,17.62
2019-02-17T23:11:11.265Z,18.45
2019-02-17T23:13:41.913Z,18.77
2019-02-17T23:16:12.505Z,19.55
2019-02-17T23:18:44.537Z,19.55
2019-02-17T23:21:15.162Z,19.92
2019-02-17T23:23:45.609Z,19.77
2019-02-17T23:26:16.041Z,18.70
2019-02-17T23:28:46.845Z,20.12
2019-02-17T23:31:17.511Z,19.40
2019-02-17T23:33:48.020Z,17.85
2019-02-17T23:36:21.523Z,19.32
2019-02-17T23:38:52.119Z,18.82
2019-02-17T23:41:22.532Z,19.30
2019-02-17T23:43:52.937Z,19.82
2019-02-17T23:46:23.396Z,20.10
2019-02-17T23:48:53.831Z,21.20
2019-02-17T23:51:25.354Z,20.72
2019-02-17T23:53:55.802Z,20.70
2019-02-17T23:56:26.185Z,21.40
2019-02-17T23:58:56.636Z,20.70
